sensor_id;sensor_type;location;lat;lon;timestamp;P1;durP1;ratioP1;P2;durP2;ratioP2
84860;SDS011;75116;42.644;23.274;2024-03-08T00:00:44;32.75;;;11.05;;
84860;SDS011;75116;42.644;23.274;2024-03-08T00:03:09;22.75;;;10.07;;
84860;SDS011;75116;42.644;23.274;2024-03-08T00:05:35;22.45;;;9.23;;
84860;SDS011;75116;42.644;23.274;2024-03-08T00:08:04;30.73;;;9.57;;
84860;SDS011;75116;42.644;23.274;2024-03-08T00:10:30;25.35;;;9.68;;
84860;SDS011;75116;42.644;23.274;2024-03-08T00:12:55;23.25;;;8.82;;
84860;SDS011;75116;42.644;23.274;2024-03-08T00:15:22;14.98;;;5.75;;
84860;SDS011;75116;42.644;23.274;2024-03-08T00:17:48;12.18;;;5.50;;
84860;SDS011;75116;42.644;23.274;2024-03-08T00:20:14;18.25;;;8.40;;
84860;SDS011;75116;42.644;23.274;2024-03-08T00:22:43;12.25;;;5.50;;
84860;SDS011;75116;42.644;23.274;2024-03-08T00:25:08;6.28;;;1.55;;
84860;SDS011;75116;42.644;23.274;2024-03-08T00:27:35;17.30;;;5.60;;
84860;SDS011;75116;42.644;23.274;2024-03-08T00:30:01;15.10;;;7.43;;
84860;SDS011;75116;42.644;23.274;2024-03-08T00:32:27;10.23;;;4.00;;
84860;SDS011;75116;42.644;23.274;2024-03-08T00:34:53;16.92;;;8.77;;
84860;SDS011;75116;42.644;23.274;2024-03-08T00:37:21;12.23;;;6.03;;
84860;SDS011;75116;42.644;23.274;2024-03-08T00:39:47;12.82;;;5.18;;
84860;SDS011;75116;42.644;23.274;2024-03-08T00:42:17;7.32;;;4.10;;
84860;SDS011;75116;42.644;23.274;2024-03-08T00:44:43;9.48;;;4.80;;
84860;SDS011;75116;42.644;23.274;2024-03-08T00:47:09;11.00;;;4.82;;
84860;SDS011;75116;42.644;23.274;2024-03-08T00:49:34;12.20;;;5.95;;
84860;SDS011;75116;42.644;23.274;2024-03-08T00:52:02;6.82;;;3.53;;
84860;SDS011;75116;42.644;23.274;2024-03-08T00:54:28;9.15;;;4.85;;
84860;SDS011;75116;42.644;23.274;2024-03-08T00:56:53;9.98;;;4.20;;
84860;SDS011;75116;42.644;23.274;2024-03-08T00:59:19;11.77;;;5.15;;
84860;SDS011;75116;42.644;23.274;2024-03-08T01:01:45;5.68;;;2.55;;
84860;SDS011;75116;42.644;23.274;2024-03-08T01:04:10;3.58;;;2.13;;
84860;SDS011;75116;42.644;23.274;2024-03-08T01:06:36;6.43;;;3.53;;
84860;SDS011;75116;42.644;23.274;2024-03-08T01:09:02;8.05;;;3.65;;
84860;SDS011;75116;42.644;23.274;2024-03-08T01:11:28;11.35;;;4.72;;
84860;SDS011;75116;42.644;23.274;2024-03-08T01:13:54;8.23;;;4.22;;
84860;SDS011;75116;42.644;23.274;2024-03-08T01:16:19;5.97;;;3.05;;
84860;SDS011;75116;42.644;23.274;2024-03-08T01:18:46;4.90;;;2.88;;
84860;SDS011;75116;42.644;23.274;2024-03-08T01:21:12;4.88;;;2.60;;
84860;SDS011;75116;42.644;23.274;2024-03-08T01:23:39;3.28;;;1.73;;
84860;SDS011;75116;42.644;23.274;2024-03-08T01:26:05;5.80;;;2.72;;
84860;SDS011;75116;42.644;23.274;2024-03-08T01:28:31;6.05;;;2.75;;
84860;SDS011;75116;42.644;23.274;2024-03-08T01:30:58;3.67;;;2.15;;
84860;SDS011;75116;42.644;23.274;2024-03-08T01:33:25;1.60;;;0.95;;
84860;SDS011;75116;42.644;23.274;2024-03-08T01:35:52;4.72;;;2.40;;
84860;SDS011;75116;42.644;23.274;2024-03-08T01:38:20;1.05;;;1.02;;
84860;SDS011;75116;42.644;23.274;2024-03-08T01:40:46;1.63;;;1.15;;
84860;SDS011;75116;42.644;23.274;2024-03-08T01:43:28;3.42;;;2.00;;
84860;SDS011;75116;42.644;23.274;2024-03-08T01:46:00;2.83;;;1.45;;
84860;SDS011;75116;42.644;23.274;2024-03-08T01:48:29;3.30;;;1.88;;
84860;SDS011;75116;42.644;23.274;2024-03-08T01:50:58;3.88;;;1.63;;
84860;SDS011;75116;42.644;23.274;2024-03-08T01:53:24;1.77;;;0.63;;
84860;SDS011;75116;42.644;23.274;2024-03-08T01:55:52;4.70;;;1.90;;
84860;SDS011;75116;42.644;23.274;2024-03-08T01:58:22;3.75;;;2.25;;
84860;SDS011;75116;42.644;23.274;2024-03-08T02:00:48;4.65;;;2.30;;
84860;SDS011;75116;42.644;23.274;2024-03-08T02:03:17;2.65;;;1.70;;
84860;SDS011;75116;42.644;23.274;2024-03-08T02:05:43;0.85;;;0.82;;
84860;SDS011;75116;42.644;23.274;2024-03-08T02:08:09;4.38;;;1.80;;
84860;SDS011;75116;42.644;23.274;2024-03-08T02:10:45;2.45;;;2.03;;
84860;SDS011;75116;42.644;23.274;2024-03-08T02:13:11;3.95;;;2.55;;
84860;SDS011;75116;42.644;23.274;2024-03-08T02:15:56;7.78;;;2.80;;
84860;SDS011;75116;42.644;23.274;2024-03-08T02:18:24;5.07;;;2.75;;
84860;SDS011;75116;42.644;23.274;2024-03-08T02:20:54;5.35;;;2.75;;
84860;SDS011;75116;42.644;23.274;2024-03-08T02:23:20;5.40;;;2.75;;
84860;SDS011;75116;42.644;23.274;2024-03-08T02:25:46;5.05;;;2.72;;
84860;SDS011;75116;42.644;23.274;2024-03-08T02:28:12;5.28;;;2.90;;
84860;SDS011;75116;42.644;23.274;2024-03-08T02:30:39;5.05;;;3.08;;
84860;SDS011;75116;42.644;23.274;2024-03-08T02:33:05;4.63;;;2.63;;
84860;SDS011;75116;42.644;23.274;2024-03-08T02:35:32;4.05;;;2.38;;
84860;SDS011;75116;42.644;23.274;2024-03-08T02:37:58;6.35;;;3.60;;
84860;SDS011;75116;42.644;23.274;2024-03-08T02:40:24;4.57;;;2.85;;
84860;SDS011;75116;42.644;23.274;2024-03-08T02:42:49;5.93;;;3.17;;
84860;SDS011;75116;42.644;23.274;2024-03-08T02:45:15;7.50;;;3.63;;
84860;SDS011;75116;42.644;23.274;2024-03-08T02:47:40;6.80;;;3.78;;
84860;SDS011;75116;42.644;23.274;2024-03-08T02:50:06;6.38;;;3.28;;
84860;SDS011;75116;42.644;23.274;2024-03-08T02:52:35;2.53;;;1.60;;
84860;SDS011;75116;42.644;23.274;2024-03-08T02:55:01;8.93;;;3.97;;
84860;SDS011;75116;42.644;23.274;2024-03-08T02:57:33;8.20;;;3.92;;
84860;SDS011;75116;42.644;23.274;2024-03-08T02:59:58;8.45;;;3.40;;
84860;SDS011;75116;42.644;23.274;2024-03-08T03:02:27;1.60;;;1.27;;
84860;SDS011;75116;42.644;23.274;2024-03-08T03:04:52;0.30;;;0.30;;
84860;SDS011;75116;42.644;23.274;2024-03-08T03:07:18;2.08;;;1.65;;
84860;SDS011;75116;42.644;23.274;2024-03-08T03:09:44;5.10;;;2.05;;
84860;SDS011;75116;42.644;23.274;2024-03-08T03:12:10;4.95;;;2.80;;
84860;SDS011;75116;42.644;23.274;2024-03-08T03:14:36;4.25;;;2.22;;
84860;SDS011;75116;42.644;23.274;2024-03-08T03:17:03;5.97;;;3.50;;
84860;SDS011;75116;42.644;23.274;2024-03-08T03:19:30;4.32;;;2.88;;
84860;SDS011;75116;42.644;23.274;2024-03-08T03:21:55;5.22;;;2.53;;
84860;SDS011;75116;42.644;23.274;2024-03-08T03:24:21;3.00;;;2.22;;
84860;SDS011;75116;42.644;23.274;2024-03-08T03:26:48;2.70;;;1.85;;
84860;SDS011;75116;42.644;23.274;2024-03-08T03:29:14;1.90;;;1.60;;
84860;SDS011;75116;42.644;23.274;2024-03-08T03:31:42;2.40;;;1.40;;
84860;SDS011;75116;42.644;23.274;2024-03-08T03:34:12;1.60;;;1.23;;
84860;SDS011;75116;42.644;23.274;2024-03-08T03:36:38;1.90;;;1.45;;
84860;SDS011;75116;42.644;23.274;2024-03-08T03:39:08;1.50;;;0.90;;
84860;SDS011;75116;42.644;23.274;2024-03-08T03:41:41;1.55;;;0.90;;
84860;SDS011;75116;42.644;23.274;2024-03-08T03:44:09;1.30;;;0.65;;
84860;SDS011;75116;42.644;23.274;2024-03-08T03:46:35;1.13;;;0.73;;
84860;SDS011;75116;42.644;23.274;2024-03-08T03:49:00;2.95;;;0.95;;
84860;SDS011;75116;42.644;23.274;2024-03-08T03:51:26;1.27;;;0.68;;
84860;SDS011;75116;42.644;23.274;2024-03-08T03:53:52;0.90;;;0.90;;
84860;SDS011;75116;42.644;23.274;2024-03-08T03:56:18;2.50;;;1.00;;
84860;SDS011;75116;42.644;23.274;2024-03-08T03:58:44;1.63;;;1.08;;
84860;SDS011;75116;42.644;23.274;2024-03-08T04:01:09;1.52;;;1.10;;
84860;SDS011;75116;42.644;23.274;2024-03-08T04:03:35;2.28;;;1.00;;
84860;SDS011;75116;42.644;23.274;2024-03-08T04:06:02;1.52;;;1.08;;
84860;SDS011;75116;42.644;23.274;2024-03-08T04:08:29;0.85;;;0.65;;
84860;SDS011;75116;42.644;23.274;2024-03-08T04:10:55;1.35;;;0.80;;
84860;SDS011;75116;42.644;23.274;2024-03-08T04:13:20;1.98;;;1.00;;
84860;SDS011;75116;42.644;23.274;2024-03-08T04:15:46;3.17;;;0.90;;
84860;SDS011;75116;42.644;23.274;2024-03-08T04:18:13;3.08;;;1.23;;
84860;SDS011;75116;42.644;23.274;2024-03-08T04:20:39;3.58;;;1.50;;
84860;SDS011;75116;42.644;23.274;2024-03-08T04:23:05;1.35;;;0.88;;
84860;SDS011;75116;42.644;23.274;2024-03-08T04:25:31;0.98;;;0.70;;
84860;SDS011;75116;42.644;23.274;2024-03-08T04:27:57;1.20;;;1.10;;
84860;SDS011;75116;42.644;23.274;2024-03-08T04:30:22;0.82;;;0.68;;
84860;SDS011;75116;42.644;23.274;2024-03-08T04:32:49;1.38;;;0.65;;
84860;SDS011;75116;42.644;23.274;2024-03-08T04:35:15;1.50;;;1.13;;
84860;SDS011;75116;42.644;23.274;2024-03-08T04:37:41;1.98;;;0.70;;
84860;SDS011;75116;42.644;23.274;2024-03-08T04:40:06;2.33;;;0.95;;
84860;SDS011;75116;42.644;23.274;2024-03-08T04:42:32;1.33;;;0.80;;
84860;SDS011;75116;42.644;23.274;2024-03-08T04:44:59;0.70;;;0.70;;
84860;SDS011;75116;42.644;23.274;2024-03-08T04:47:25;1.50;;;0.90;;
84860;SDS011;75116;42.644;23.274;2024-03-08T04:49:50;2.20;;;1.10;;
84860;SDS011;75116;42.644;23.274;2024-03-08T04:52:16;1.85;;;1.48;;
84860;SDS011;75116;42.644;23.274;2024-03-08T04:54:42;2.88;;;1.63;;
84860;SDS011;75116;42.644;23.274;2024-03-08T04:57:09;2.42;;;1.50;;
84860;SDS011;75116;42.644;23.274;2024-03-08T04:59:35;2.15;;;1.52;;
84860;SDS011;75116;42.644;23.274;2024-03-08T05:02:01;1.20;;;0.80;;
84860;SDS011;75116;42.644;23.274;2024-03-08T05:04:30;1.45;;;1.17;;
84860;SDS011;75116;42.644;23.274;2024-03-08T05:06:55;2.97;;;1.20;;
84860;SDS011;75116;42.644;23.274;2024-03-08T05:09:21;2.72;;;1.27;;
84860;SDS011;75116;42.644;23.274;2024-03-08T05:11:47;2.42;;;1.30;;
84860;SDS011;75116;42.644;23.274;2024-03-08T05:14:15;2.47;;;0.90;;
84860;SDS011;75116;42.644;23.274;2024-03-08T05:16:46;1.52;;;1.02;;
84860;SDS011;75116;42.644;23.274;2024-03-08T05:19:15;2.33;;;1.58;;
84860;SDS011;75116;42.644;23.274;2024-03-08T05:21:44;2.30;;;1.60;;
84860;SDS011;75116;42.644;23.274;2024-03-08T05:24:13;2.78;;;1.60;;
84860;SDS011;75116;42.644;23.274;2024-03-08T05:26:42;3.17;;;2.00;;
84860;SDS011;75116;42.644;23.274;2024-03-08T05:29:07;2.25;;;1.52;;
84860;SDS011;75116;42.644;23.274;2024-03-08T05:31:52;2.50;;;1.52;;
84860;SDS011;75116;42.644;23.274;2024-03-08T05:34:21;2.55;;;1.70;;
84860;SDS011;75116;42.644;23.274;2024-03-08T05:36:48;2.67;;;1.75;;
84860;SDS011;75116;42.644;23.274;2024-03-08T05:39:17;2.75;;;1.98;;
84860;SDS011;75116;42.644;23.274;2024-03-08T05:41:43;4.72;;;2.08;;
84860;SDS011;75116;42.644;23.274;2024-03-08T05:44:11;3.58;;;1.88;;
84860;SDS011;75116;42.644;23.274;2024-03-08T05:46:38;2.13;;;1.13;;
84860;SDS011;75116;42.644;23.274;2024-03-08T05:49:04;2.78;;;1.88;;
84860;SDS011;75116;42.644;23.274;2024-03-08T05:51:33;3.72;;;2.60;;
84860;SDS011;75116;42.644;23.274;2024-03-08T05:54:00;2.63;;;1.73;;
84860;SDS011;75116;42.644;23.274;2024-03-08T05:56:30;3.70;;;1.90;;
84860;SDS011;75116;42.644;23.274;2024-03-08T05:58:57;3.58;;;2.35;;
84860;SDS011;75116;42.644;23.274;2024-03-08T06:01:23;5.95;;;2.55;;
84860;SDS011;75116;42.644;23.274;2024-03-08T06:03:53;3.92;;;2.47;;
84860;SDS011;75116;42.644;23.274;2024-03-08T06:06:21;1.75;;;0.95;;
84860;SDS011;75116;42.644;23.274;2024-03-08T06:08:47;6.07;;;3.30;;
84860;SDS011;75116;42.644;23.274;2024-03-08T06:11:17;6.45;;;3.15;;
84860;SDS011;75116;42.644;23.274;2024-03-08T06:13:44;5.43;;;3.15;;
84860;SDS011;75116;42.644;23.274;2024-03-08T06:16:10;5.70;;;3.83;;
84860;SDS011;75116;42.644;23.274;2024-03-08T06:18:42;6.05;;;3.55;;
84860;SDS011;75116;42.644;23.274;2024-03-08T06:21:08;7.00;;;4.05;;
84860;SDS011;75116;42.644;23.274;2024-03-08T06:23:36;8.93;;;4.07;;
84860;SDS011;75116;42.644;23.274;2024-03-08T06:26:06;13.43;;;7.55;;
84860;SDS011;75116;42.644;23.274;2024-03-08T06:28:33;12.05;;;5.78;;
84860;SDS011;75116;42.644;23.274;2024-03-08T06:30:59;10.32;;;5.05;;
84860;SDS011;75116;42.644;23.274;2024-03-08T06:33:25;6.13;;;3.85;;
84860;SDS011;75116;42.644;23.274;2024-03-08T06:35:54;10.55;;;4.85;;
84860;SDS011;75116;42.644;23.274;2024-03-08T06:38:22;7.15;;;4.53;;
84860;SDS011;75116;42.644;23.274;2024-03-08T06:40:51;7.20;;;5.00;;
84860;SDS011;75116;42.644;23.274;2024-03-08T06:43:18;4.90;;;3.53;;
84860;SDS011;75116;42.644;23.274;2024-03-08T06:45:44;6.05;;;2.78;;
84860;SDS011;75116;42.644;23.274;2024-03-08T06:48:19;3.05;;;2.05;;
84860;SDS011;75116;42.644;23.274;2024-03-08T06:50:45;6.28;;;3.35;;
84860;SDS011;75116;42.644;23.274;2024-03-08T06:53:12;4.97;;;2.67;;
84860;SDS011;75116;42.644;23.274;2024-03-08T06:55:38;4.70;;;3.35;;
84860;SDS011;75116;42.644;23.274;2024-03-08T06:58:04;9.80;;;4.47;;
84860;SDS011;75116;42.644;23.274;2024-03-08T07:00:31;6.20;;;4.28;;
84860;SDS011;75116;42.644;23.274;2024-03-08T07:02:57;7.43;;;4.43;;
84860;SDS011;75116;42.644;23.274;2024-03-08T07:05:28;11.82;;;6.38;;
84860;SDS011;75116;42.644;23.274;2024-03-08T07:07:55;5.82;;;3.78;;
84860;SDS011;75116;42.644;23.274;2024-03-08T07:10:21;4.80;;;3.17;;
84860;SDS011;75116;42.644;23.274;2024-03-08T07:12:49;3.72;;;2.70;;
84860;SDS011;75116;42.644;23.274;2024-03-08T07:15:16;8.73;;;4.55;;
84860;SDS011;75116;42.644;23.274;2024-03-08T07:17:44;6.32;;;3.88;;
84860;SDS011;75116;42.644;23.274;2024-03-08T07:20:10;10.27;;;5.20;;
84860;SDS011;75116;42.644;23.274;2024-03-08T07:22:38;3.88;;;2.47;;
84860;SDS011;75116;42.644;23.274;2024-03-08T07:25:04;11.82;;;6.03;;
84860;SDS011;75116;42.644;23.274;2024-03-08T07:27:52;3.67;;;2.60;;
84860;SDS011;75116;42.644;23.274;2024-03-08T07:30:20;4.57;;;3.25;;
84860;SDS011;75116;42.644;23.274;2024-03-08T07:33:05;4.65;;;3.38;;
84860;SDS011;75116;42.644;23.274;2024-03-08T07:35:32;4.05;;;2.85;;
84860;SDS011;75116;42.644;23.274;2024-03-08T07:37:58;5.22;;;3.47;;
84860;SDS011;75116;42.644;23.274;2024-03-08T07:40:25;6.28;;;3.58;;
84860;SDS011;75116;42.644;23.274;2024-03-08T07:42:52;6.78;;;3.60;;
84860;SDS011;75116;42.644;23.274;2024-03-08T07:45:17;8.75;;;4.55;;
84860;SDS011;75116;42.644;23.274;2024-03-08T07:47:43;4.97;;;3.60;;
84860;SDS011;75116;42.644;23.274;2024-03-08T07:50:09;4.35;;;2.78;;
84860;SDS011;75116;42.644;23.274;2024-03-08T07:52:35;8.93;;;4.75;;
84860;SDS011;75116;42.644;23.274;2024-03-08T07:55:03;5.45;;;4.20;;
84860;SDS011;75116;42.644;23.274;2024-03-08T07:57:30;8.40;;;3.95;;
84860;SDS011;75116;42.644;23.274;2024-03-08T07:59:56;8.00;;;4.28;;
84860;SDS011;75116;42.644;23.274;2024-03-08T08:02:32;3.45;;;2.20;;
84860;SDS011;75116;42.644;23.274;2024-03-08T08:05:01;5.55;;;2.60;;
84860;SDS011;75116;42.644;23.274;2024-03-08T08:07:26;1.45;;;0.95;;
84860;SDS011;75116;42.644;23.274;2024-03-08T08:09:52;4.40;;;2.13;;
84860;SDS011;75116;42.644;23.274;2024-03-08T08:12:18;1.85;;;1.55;;
84860;SDS011;75116;42.644;23.274;2024-03-08T08:14:44;3.92;;;2.00;;
84860;SDS011;75116;42.644;23.274;2024-03-08T08:17:10;7.20;;;4.82;;
84860;SDS011;75116;42.644;23.274;2024-03-08T08:19:37;6.47;;;3.88;;
84860;SDS011;75116;42.644;23.274;2024-03-08T08:22:03;4.45;;;2.92;;
84860;SDS011;75116;42.644;23.274;2024-03-08T08:24:29;7.60;;;3.53;;
84860;SDS011;75116;42.644;23.274;2024-03-08T08:26:55;7.20;;;4.68;;
84860;SDS011;75116;42.644;23.274;2024-03-08T08:29:20;8.90;;;5.35;;
84860;SDS011;75116;42.644;23.274;2024-03-08T08:31:49;10.45;;;5.35;;
84860;SDS011;75116;42.644;23.274;2024-03-08T08:34:15;3.97;;;2.13;;
84860;SDS011;75116;42.644;23.274;2024-03-08T08:36:44;5.57;;;3.05;;
84860;SDS011;75116;42.644;23.274;2024-03-08T08:39:10;7.03;;;4.50;;
84860;SDS011;75116;42.644;23.274;2024-03-08T08:41:38;7.85;;;4.32;;
84860;SDS011;75116;42.644;23.274;2024-03-08T08:44:06;7.47;;;5.10;;
84860;SDS011;75116;42.644;23.274;2024-03-08T08:46:37;8.63;;;4.10;;
84860;SDS011;75116;42.644;23.274;2024-03-08T08:49:03;8.38;;;4.78;;
84860;SDS011;75116;42.644;23.274;2024-03-08T08:51:39;8.70;;;4.65;;
84860;SDS011;75116;42.644;23.274;2024-03-08T08:54:06;13.45;;;6.15;;
84860;SDS011;75116;42.644;23.274;2024-03-08T08:56:32;7.25;;;4.03;;
84860;SDS011;75116;42.644;23.274;2024-03-08T08:58:58;6.03;;;4.25;;
84860;SDS011;75116;42.644;23.274;2024-03-08T09:01:23;8.95;;;5.35;;
84860;SDS011;75116;42.644;23.274;2024-03-08T09:03:48;11.27;;;3.85;;
84860;SDS011;75116;42.644;23.274;2024-03-08T09:06:15;4.15;;;2.60;;
84860;SDS011;75116;42.644;23.274;2024-03-08T09:08:43;3.13;;;1.88;;
84860;SDS011;75116;42.644;23.274;2024-03-08T09:11:09;4.50;;;2.15;;
84860;SDS011;75116;42.644;23.274;2024-03-08T09:13:35;6.25;;;3.90;;
84860;SDS011;75116;42.644;23.274;2024-03-08T09:16:04;7.97;;;4.85;;
84860;SDS011;75116;42.644;23.274;2024-03-08T09:18:32;8.98;;;3.85;;
84860;SDS011;75116;42.644;23.274;2024-03-08T09:20:58;13.20;;;3.13;;
84860;SDS011;75116;42.644;23.274;2024-03-08T09:23:24;5.95;;;3.42;;
84860;SDS011;75116;42.644;23.274;2024-03-08T09:25:55;2.17;;;1.42;;
84860;SDS011;75116;42.644;23.274;2024-03-08T09:28:24;3.00;;;2.45;;
84860;SDS011;75116;42.644;23.274;2024-03-08T09:30:50;6.85;;;3.53;;
84860;SDS011;75116;42.644;23.274;2024-03-08T09:33:15;6.45;;;4.35;;
84860;SDS011;75116;42.644;23.274;2024-03-08T09:35:45;5.38;;;3.95;;
84860;SDS011;75116;42.644;23.274;2024-03-08T09:38:16;5.47;;;3.30;;
84860;SDS011;75116;42.644;23.274;2024-03-08T09:40:42;9.07;;;3.88;;
84860;SDS011;75116;42.644;23.274;2024-03-08T09:43:08;10.38;;;4.25;;
84860;SDS011;75116;42.644;23.274;2024-03-08T09:45:37;5.32;;;2.13;;
84860;SDS011;75116;42.644;23.274;2024-03-08T09:48:07;3.75;;;2.53;;
84860;SDS011;75116;42.644;23.274;2024-03-08T09:50:39;6.20;;;3.47;;
84860;SDS011;75116;42.644;23.274;2024-03-08T09:53:08;4.13;;;2.63;;
84860;SDS011;75116;42.644;23.274;2024-03-08T09:55:38;6.72;;;3.17;;
84860;SDS011;75116;42.644;23.274;2024-03-08T09:58:14;4.85;;;3.20;;
84860;SDS011;75116;42.644;23.274;2024-03-08T10:00:43;4.25;;;2.97;;
84860;SDS011;75116;42.644;23.274;2024-03-08T10:03:08;3.92;;;2.83;;
84860;SDS011;75116;42.644;23.274;2024-03-08T10:05:35;4.68;;;2.95;;
84860;SDS011;75116;42.644;23.274;2024-03-08T10:08:01;4.88;;;2.95;;
84860;SDS011;75116;42.644;23.274;2024-03-08T10:10:27;3.13;;;1.80;;
84860;SDS011;75116;42.644;23.274;2024-03-08T10:12:53;2.47;;;2.00;;
84860;SDS011;75116;42.644;23.274;2024-03-08T10:15:20;4.82;;;2.22;;
84860;SDS011;75116;42.644;23.274;2024-03-08T10:17:45;7.05;;;2.60;;
84860;SDS011;75116;42.644;23.274;2024-03-08T10:20:14;3.08;;;2.40;;
84860;SDS011;75116;42.644;23.274;2024-03-08T10:22:41;4.43;;;2.38;;
84860;SDS011;75116;42.644;23.274;2024-03-08T10:25:12;2.80;;;1.77;;
84860;SDS011;75116;42.644;23.274;2024-03-08T10:27:38;2.50;;;2.30;;
84860;SDS011;75116;42.644;23.274;2024-03-08T10:30:11;4.43;;;2.78;;
84860;SDS011;75116;42.644;23.274;2024-03-08T10:32:39;5.95;;;2.05;;
84860;SDS011;75116;42.644;23.274;2024-03-08T10:35:09;4.00;;;2.10;;
84860;SDS011;75116;42.644;23.274;2024-03-08T10:37:45;3.60;;;1.65;;
84860;SDS011;75116;42.644;23.274;2024-03-08T10:40:28;3.75;;;2.35;;
84860;SDS011;75116;42.644;23.274;2024-03-08T10:42:59;5.35;;;2.05;;
84860;SDS011;75116;42.644;23.274;2024-03-08T10:50:41;2.95;;;1.80;;
84860;SDS011;75116;42.644;23.274;2024-03-08T10:53:12;4.07;;;2.22;;
84860;SDS011;75116;42.644;23.274;2024-03-08T10:55:40;10.25;;;2.58;;
84860;SDS011;75116;42.644;23.274;2024-03-08T10:58:06;3.17;;;2.05;;
84860;SDS011;75116;42.644;23.274;2024-03-08T11:00:33;1.67;;;0.90;;
84860;SDS011;75116;42.644;23.274;2024-03-08T11:03:00;2.90;;;1.85;;
84860;SDS011;75116;42.644;23.274;2024-03-08T11:08:03;2.95;;;1.42;;
84860;SDS011;75116;42.644;23.274;2024-03-08T11:10:47;3.83;;;1.98;;
84860;SDS011;75116;42.644;23.274;2024-03-08T11:13:35;3.33;;;1.88;;
84860;SDS011;75116;42.644;23.274;2024-03-08T11:16:02;3.00;;;1.85;;
84860;SDS011;75116;42.644;23.274;2024-03-08T11:18:32;4.53;;;2.05;;
84860;SDS011;75116;42.644;23.274;2024-03-08T11:21:02;2.97;;;2.08;;
84860;SDS011;75116;42.644;23.274;2024-03-08T11:23:31;3.33;;;1.73;;
84860;SDS011;75116;42.644;23.274;2024-03-08T11:25:58;2.53;;;1.95;;
84860;SDS011;75116;42.644;23.274;2024-03-08T11:28:24;3.65;;;1.70;;
84860;SDS011;75116;42.644;23.274;2024-03-08T11:33:27;2.58;;;1.92;;
84860;SDS011;75116;42.644;23.274;2024-03-08T11:36:03;1.70;;;1.23;;
84860;SDS011;75116;42.644;23.274;2024-03-08T11:38:44;3.20;;;1.90;;
84860;SDS011;75116;42.644;23.274;2024-03-08T11:41:10;2.22;;;1.90;;
84860;SDS011;75116;42.644;23.274;2024-03-08T11:43:42;2.40;;;1.70;;
84860;SDS011;75116;42.644;23.274;2024-03-08T11:46:10;2.75;;;1.90;;
84860;SDS011;75116;42.644;23.274;2024-03-08T11:48:40;3.33;;;1.75;;
84860;SDS011;75116;42.644;23.274;2024-03-08T11:51:12;2.90;;;1.88;;
84860;SDS011;75116;42.644;23.274;2024-03-08T11:53:39;1.23;;;1.10;;
84860;SDS011;75116;42.644;23.274;2024-03-08T11:56:09;2.70;;;1.77;;
84860;SDS011;75116;42.644;23.274;2024-03-08T11:58:36;2.78;;;1.10;;
84860;SDS011;75116;42.644;23.274;2024-03-08T12:01:03;2.92;;;1.80;;
84860;SDS011;75116;42.644;23.274;2024-03-08T12:03:30;2.75;;;1.70;;
84860;SDS011;75116;42.644;23.274;2024-03-08T12:06:01;2.15;;;1.40;;
84860;SDS011;75116;42.644;23.274;2024-03-08T12:08:30;2.75;;;1.15;;
84860;SDS011;75116;42.644;23.274;2024-03-08T12:10:57;1.90;;;1.38;;
84860;SDS011;75116;42.644;23.274;2024-03-08T12:13:26;2.10;;;1.45;;
84860;SDS011;75116;42.644;23.274;2024-03-08T12:15:57;1.92;;;1.52;;
84860;SDS011;75116;42.644;23.274;2024-03-08T12:18:27;1.55;;;1.23;;
84860;SDS011;75116;42.644;23.274;2024-03-08T12:21:04;2.42;;;1.05;;
84860;SDS011;75116;42.644;23.274;2024-03-08T12:23:33;2.25;;;1.48;;
84860;SDS011;75116;42.644;23.274;2024-03-08T12:26:14;3.60;;;1.45;;
84860;SDS011;75116;42.644;23.274;2024-03-08T12:28:42;1.23;;;1.13;;
84860;SDS011;75116;42.644;23.274;2024-03-08T12:31:18;2.55;;;2.30;;
84860;SDS011;75116;42.644;23.274;2024-03-08T12:33:48;2.00;;;1.60;;
84860;SDS011;75116;42.644;23.274;2024-03-08T12:36:14;2.83;;;1.70;;
84860;SDS011;75116;42.644;23.274;2024-03-08T12:38:44;1.90;;;1.60;;
84860;SDS011;75116;42.644;23.274;2024-03-08T12:41:13;2.42;;;1.67;;
84860;SDS011;75116;42.644;23.274;2024-03-08T12:43:46;1.38;;;1.00;;
84860;SDS011;75116;42.644;23.274;2024-03-08T12:46:15;1.23;;;1.13;;
84860;SDS011;75116;42.644;23.274;2024-03-08T12:48:51;0.47;;;0.47;;
84860;SDS011;75116;42.644;23.274;2024-03-08T12:51:19;1.85;;;1.20;;
84860;SDS011;75116;42.644;23.274;2024-03-08T12:53:46;1.52;;;1.15;;
84860;SDS011;75116;42.644;23.274;2024-03-08T12:56:12;0.95;;;0.82;;
84860;SDS011;75116;42.644;23.274;2024-03-08T12:58:40;3.05;;;1.33;;
84860;SDS011;75116;42.644;23.274;2024-03-08T13:01:05;0.98;;;0.63;;
84860;SDS011;75116;42.644;23.274;2024-03-08T13:03:33;0.93;;;0.75;;
84860;SDS011;75116;42.644;23.274;2024-03-08T13:06:01;3.83;;;1.30;;
84860;SDS011;75116;42.644;23.274;2024-03-08T13:08:36;1.27;;;1.02;;
84860;SDS011;75116;42.644;23.274;2024-03-08T13:11:06;1.27;;;0.98;;
84860;SDS011;75116;42.644;23.274;2024-03-08T13:13:32;1.75;;;1.00;;
84860;SDS011;75116;42.644;23.274;2024-03-08T13:16:01;4.72;;;1.77;;
84860;SDS011;75116;42.644;23.274;2024-03-08T13:18:27;4.93;;;1.80;;
84860;SDS011;75116;42.644;23.274;2024-03-08T13:20:54;11.80;;;4.25;;
84860;SDS011;75116;42.644;23.274;2024-03-08T13:23:19;1.67;;;0.93;;
84860;SDS011;75116;42.644;23.274;2024-03-08T13:25:45;2.78;;;1.92;;
84860;SDS011;75116;42.644;23.274;2024-03-08T13:28:13;3.50;;;0.95;;
84860;SDS011;75116;42.644;23.274;2024-03-08T13:30:38;2.05;;;1.55;;
84860;SDS011;75116;42.644;23.274;2024-03-08T13:33:04;2.45;;;1.48;;
84860;SDS011;75116;42.644;23.274;2024-03-08T13:35:32;3.65;;;1.50;;
84860;SDS011;75116;42.644;23.274;2024-03-08T13:37:59;1.17;;;0.35;;
84860;SDS011;75116;42.644;23.274;2024-03-08T13:40:28;1.80;;;1.50;;
84860;SDS011;75116;42.644;23.274;2024-03-08T13:42:54;7.15;;;1.30;;
84860;SDS011;75116;42.644;23.274;2024-03-08T13:45:20;3.35;;;1.98;;
84860;SDS011;75116;42.644;23.274;2024-03-08T13:47:49;1.95;;;0.95;;
84860;SDS011;75116;42.644;23.274;2024-03-08T13:50:16;2.10;;;1.90;;
84860;SDS011;75116;42.644;23.274;2024-03-08T13:52:46;1.13;;;0.80;;
84860;SDS011;75116;42.644;23.274;2024-03-08T13:55:16;0.90;;;0.70;;
84860;SDS011;75116;42.644;23.274;2024-03-08T13:57:42;1.08;;;0.82;;
84860;SDS011;75116;42.644;23.274;2024-03-08T14:00:10;2.78;;;1.30;;
84860;SDS011;75116;42.644;23.274;2024-03-08T14:02:36;2.65;;;1.25;;
84860;SDS011;75116;42.644;23.274;2024-03-08T14:05:02;0.95;;;0.90;;
84860;SDS011;75116;42.644;23.274;2024-03-08T14:07:28;1.20;;;1.08;;
84860;SDS011;75116;42.644;23.274;2024-03-08T14:09:58;0.77;;;0.77;;
84860;SDS011;75116;42.644;23.274;2024-03-08T14:12:24;1.60;;;1.27;;
84860;SDS011;75116;42.644;23.274;2024-03-08T14:14:52;2.67;;;1.05;;
84860;SDS011;75116;42.644;23.274;2024-03-08T14:17:18;6.75;;;3.42;;
84860;SDS011;75116;42.644;23.274;2024-03-08T14:19:43;3.60;;;1.63;;
84860;SDS011;75116;42.644;23.274;2024-03-08T14:22:09;1.73;;;1.10;;
84860;SDS011;75116;42.644;23.274;2024-03-08T14:24:48;2.13;;;1.25;;
84860;SDS011;75116;42.644;23.274;2024-03-08T14:27:15;0.73;;;0.50;;
84860;SDS011;75116;42.644;23.274;2024-03-08T14:29:42;1.25;;;1.08;;
84860;SDS011;75116;42.644;23.274;2024-03-08T14:32:08;0.98;;;0.85;;
84860;SDS011;75116;42.644;23.274;2024-03-08T14:34:35;1.95;;;1.60;;
84860;SDS011;75116;42.644;23.274;2024-03-08T14:37:00;1.33;;;1.23;;
84860;SDS011;75116;42.644;23.274;2024-03-08T14:39:30;1.67;;;1.23;;
84860;SDS011;75116;42.644;23.274;2024-03-08T14:41:58;0.90;;;0.52;;
84860;SDS011;75116;42.644;23.274;2024-03-08T14:44:25;1.50;;;1.40;;
84860;SDS011;75116;42.644;23.274;2024-03-08T14:46:57;1.98;;;1.50;;